Time;durP1;ratioP1;P1;durP2;ratioP2;P2;SDS_P1;SDS_P2;PMS_P1;PMS_P2;Temp;Humidity;BMP_temperature;BMP_pressure;BME280_temperature;BME280_humidity;BME280_pressure;Samples;Min_cycle;Max_cycle;Signal;HPM_P1;HPM_P2
2022/11/18 00:01:05;;;;;;;24.77;16.95;;;7.00;99.90;;;;;;5110386;28;20047;-77
2022/11/18 00:03:31;;;;;;;25.05;17.83;;;7.00;99.90;;;;;;5108831;28;20070;-78
2022/11/18 00:05:57;;;;;;;29.25;17.95;;;7.00;99.90;;;;;;5108989;28;20486;-77
2022/11/18 00:08:24;;;;;;;27.27;18.60;;;7.00;99.90;;;;;;5110736;28;20036;-78
2022/11/18 00:10:50;;;;;;;31.58;18.90;;;7.10;99.90;;;;;;5109417;28;20048;-77
2022/11/18 00:16:03;;;;;;;30.75;18.67;;;7.00;99.90;;;;;;5107774;28;20610;-78
2022/11/18 00:18:29;;;;;;;29.15;19.08;;;7.10;99.90;;;;;;5088118;28;20056;-78
2022/11/18 00:20:59;;;;;;;31.98;19.77;;;7.10;99.90;;;;;;5087969;28;20051;-78
2022/11/18 00:23:24;;;;;;;32.42;19.30;;;7.10;99.90;;;;;;5096049;28;20378;-77
2022/11/18 00:25:50;;;;;;;31.30;19.13;;;7.10;99.90;;;;;;5108335;28;20043;-77
2022/11/18 00:28:16;;;;;;;34.08;20.42;;;7.10;99.90;;;;;;5108274;28;20044;-77
2022/11/18 00:30:41;;;;;;;32.17;19.15;;;7.10;99.90;;;;;;5090518;28;20048;-78
2022/11/18 00:33:07;;;;;;;35.70;19.92;;;7.10;99.90;;;;;;5089128;28;20098;-78
2022/11/18 00:35:32;;;;;;;35.92;20.35;;;7.10;99.90;;;;;;5108677;28;20052;-78
2022/11/18 00:37:58;;;;;;;33.58;20.10;;;7.10;99.90;;;;;;5105938;28;20050;-77
2022/11/18 00:40:24;;;;;;;32.70;20.33;;;7.10;99.90;;;;;;5107705;28;20043;-78
2022/11/18 00:42:50;;;;;;;37.15;20.77;;;7.10;99.90;;;;;;5106959;28;20096;-77
2022/11/18 00:45:16;;;;;;;35.67;20.60;;;7.10;99.90;;;;;;5108072;28;20035;-77
2022/11/18 00:47:42;;;;;;;35.25;21.23;;;7.20;99.90;;;;;;5086513;28;20047;-78
2022/11/18 00:50:08;;;;;;;33.80;20.27;;;7.20;99.90;;;;;;5109985;28;20051;-78
2022/11/18 00:52:33;;;;;;;34.17;20.20;;;7.20;99.90;;;;;;5109233;28;20039;-78
2022/11/18 00:54:59;;;;;;;37.13;22.15;;;7.20;99.90;;;;;;5108322;28;20097;-78
2022/11/18 00:57:24;;;;;;;38.35;21.60;;;7.20;99.90;;;;;;5109379;28;20047;-77
2022/11/18 00:59:50;;;;;;;40.30;21.73;;;7.20;99.90;;;;;;5107836;28;20047;-78
2022/11/18 01:02:15;;;;;;;43.28;22.23;;;7.20;99.90;;;;;;5109665;28;20056;-77
2022/11/18 01:04:41;;;;;;;37.70;21.02;;;7.20;99.90;;;;;;5107103;28;20483;-78
2022/11/18 01:07:06;;;;;;;39.70;21.17;;;7.20;99.90;;;;;;5109171;28;20371;-78
2022/11/18 01:09:32;;;;;;;41.85;22.10;;;7.20;99.90;;;;;;5109733;28;20043;-77
2022/11/18 01:14:42;;;;;;;37.67;21.55;;;7.20;99.90;;;;;;5109237;28;20055;-78
2022/11/18 01:17:07;;;;;;;38.72;22.20;;;7.40;99.90;;;;;;5109338;28;20058;-78
2022/11/18 01:19:34;;;;;;;40.45;21.48;;;7.20;99.90;;;;;;5108897;28;20549;-78
2022/11/18 01:22:02;;;;;;;36.60;21.55;;;7.20;99.90;;;;;;5107820;28;20055;-78
2022/11/18 01:24:32;;;;;;;44.13;21.45;;;7.20;99.90;;;;;;5105631;28;20043;-78
2022/11/18 01:26:58;;;;;;;40.00;23.60;;;7.20;99.90;;;;;;5108767;28;20044;-78
2022/11/18 01:29:23;;;;;;;44.75;21.80;;;7.20;99.90;;;;;;5108220;27;20147;-78
2022/11/18 01:31:49;;;;;;;41.40;22.30;;;7.20;99.90;;;;;;5108044;28;20121;-78
2022/11/18 01:34:15;;;;;;;38.15;22.48;;;7.20;99.90;;;;;;5107535;28;20436;-77
2022/11/18 01:36:40;;;;;;;40.22;22.77;;;7.20;99.90;;;;;;5108874;28;20087;-78
2022/11/18 01:39:06;;;;;;;41.22;23.30;;;7.20;99.90;;;;;;5106943;28;20097;-78
2022/11/18 01:41:31;;;;;;;38.85;22.42;;;7.20;99.90;;;;;;5106416;28;20116;-78
2022/11/18 01:44:03;;;;;;;39.30;22.33;;;7.20;99.90;;;;;;5089026;28;20038;-78
2022/11/18 01:46:32;;;;;;;39.63;22.08;;;7.20;99.90;;;;;;5106570;28;20078;-78
2022/11/18 01:49:06;;;;;;;41.33;22.35;;;7.20;99.90;;;;;;5097157;28;20051;-78
2022/11/18 01:51:47;;;;;;;39.30;22.25;;;7.20;99.90;;;;;;5107017;28;20090;-78
2022/11/18 01:54:19;;;;;;;39.50;21.80;;;7.20;99.90;;;;;;5105968;28;20465;-78
2022/11/18 01:56:51;;;;;;;38.40;21.85;;;7.20;99.90;;;;;;5106693;28;20047;-78
2022/11/18 01:59:25;;;;;;;46.22;23.67;;;7.20;99.90;;;;;;5086258;28;20457;-78
2022/11/18 02:01:50;;;;;;;39.05;21.85;;;7.20;99.90;;;;;;5088072;28;20057;-77
2022/11/18 02:04:16;;;;;;;40.08;22.40;;;7.20;99.90;;;;;;5107454;28;20145;-78
2022/11/18 02:06:45;;;;;;;38.47;22.08;;;7.20;99.90;;;;;;5105706;28;20043;-78
2022/11/18 02:09:13;;;;;;;44.15;22.88;;;7.20;99.90;;;;;;5106442;28;20541;-77
2022/11/18 02:11:53;;;;;;;42.30;22.42;;;7.20;99.90;;;;;;5087356;28;20560;-78
2022/11/18 02:14:32;;;;;;;40.05;22.33;;;7.20;99.90;;;;;;5105230;28;20433;-78
2022/11/18 02:17:40;;;;;;;39.38;22.38;;;7.20;99.90;;;;;;5106712;28;20134;-77
2022/11/18 02:20:17;;;;;;;37.22;20.40;;;7.20;99.90;;;;;;5105447;28;20101;-78
2022/11/18 02:23:13;;;;;;;41.45;22.15;;;7.20;99.90;;;;;;5106942;28;20044;-78
2022/11/18 02:26:04;;;;;;;38.17;22.15;;;7.20;99.90;;;;;;5105974;28;20077;-77
2022/11/18 02:28:32;;;;;;;39.47;21.73;;;7.20;99.90;;;;;;5106208;28;20044;-78
2022/11/18 02:31:07;;;;;;;40.70;20.83;;;7.20;99.90;;;;;;5103099;28;20050;-78
2022/11/18 02:33:46;;;;;;;38.08;20.67;;;7.20;99.90;;;;;;5105378;28;20049;-78
2022/11/18 02:36:29;;;;;;;37.35;21.05;;;7.20;99.90;;;;;;5105469;28;20052;-78
2022/11/18 02:39:04;;;;;;;35.42;21.08;;;7.20;99.90;;;;;;5104607;28;20568;-78
2022/11/18 02:41:32;;;;;;;38.00;20.75;;;7.20;99.90;;;;;;5104960;28;20338;-78
2022/11/18 02:44:06;;;;;;;39.88;22.52;;;7.20;99.90;;;;;;5105534;28;20051;-78
2022/11/18 02:46:36;;;;;;;36.55;21.27;;;7.20;99.90;;;;;;5106263;28;20067;-78
2022/11/18 02:49:07;;;;;;;38.45;21.45;;;7.20;99.90;;;;;;5106075;28;20520;-78
2022/11/18 02:51:33;;;;;;;37.55;20.40;;;7.20;99.90;;;;;;5106458;28;20039;-78
2022/11/18 02:54:04;;;;;;;40.65;21.55;;;7.20;99.90;;;;;;5106711;28;20054;-78
2022/11/18 02:56:31;;;;;;;37.20;21.75;;;7.20;99.90;;;;;;5106853;28;20166;-78
2022/11/18 02:58:57;;;;;;;37.28;21.58;;;7.10;99.90;;;;;;5106652;28;20044;-78
2022/11/18 03:01:28;;;;;;;37.00;21.15;;;7.20;99.90;;;;;;5107733;28;20055;-77
2022/11/18 03:03:54;;;;;;;39.20;20.88;;;7.20;99.90;;;;;;5105624;28;20066;-78
2022/11/18 03:06:43;;;;;;;36.78;20.63;;;7.20;99.90;;;;;;5109971;28;20592;-77
2022/11/18 03:09:31;;;;;;;35.30;20.23;;;7.20;99.90;;;;;;5110205;28;21099;-77
2022/11/18 03:12:50;;;;;;;37.72;20.63;;;7.20;99.90;;;;;;5092517;28;20047;-77
2022/11/18 03:15:33;;;;;;;33.10;19.83;;;7.20;99.90;;;;;;5066884;28;20461;-78
2022/11/18 03:18:27;;;;;;;34.15;20.42;;;7.10;99.90;;;;;;5090725;28;20056;-78
2022/11/18 03:21:23;;;;;;;38.50;20.92;;;7.20;99.90;;;;;;5092546;28;20118;-77
2022/11/18 03:23:58;;;;;;;33.20;19.20;;;7.20;99.90;;;;;;5099625;28;20142;-77
2022/11/18 03:26:31;;;;;;;34.63;20.33;;;7.10;99.90;;;;;;5111128;28;20395;-77
2022/11/18 03:29:09;;;;;;;37.92;20.73;;;7.10;99.90;;;;;;5109153;28;20048;-77
2022/11/18 03:31:49;;;;;;;34.33;20.33;;;7.10;99.90;;;;;;5109721;28;20043;-78
2022/11/18 03:34:25;;;;;;;34.00;20.30;;;7.10;99.90;;;;;;5107533;28;20130;-78
2022/11/18 03:36:55;;;;;;;35.78;20.55;;;7.10;99.90;;;;;;5110437;28;20497;-78
2022/11/18 03:39:24;;;;;;;34.45;20.40;;;7.10;99.90;;;;;;5107754;28;20127;-78
2022/11/18 03:42:01;;;;;;;32.20;21.08;;;7.10;99.90;;;;;;5109479;28;20047;-77
2022/11/18 03:44:30;;;;;;;36.40;20.25;;;7.10;99.90;;;;;;5109143;28;20409;-78
2022/11/18 03:47:04;;;;;;;32.03;19.98;;;7.10;99.90;;;;;;5111060;28;20048;-78
2022/11/18 03:49:36;;;;;;;33.78;19.90;;;7.20;99.90;;;;;;5109307;28;20130;-77
2022/11/18 03:52:09;;;;;;;33.58;20.08;;;7.20;99.90;;;;;;5109434;28;20130;-77
2022/11/18 03:54:38;;;;;;;34.10;19.23;;;7.10;99.90;;;;;;5108863;28;20044;-78
2022/11/18 03:57:11;;;;;;;32.05;20.90;;;7.10;99.90;;;;;;5107532;28;20130;-78
2022/11/18 03:59:44;;;;;;;33.67;20.35;;;7.20;99.90;;;;;;5108680;28;20040;-78
2022/11/18 04:02:22;;;;;;;30.75;19.98;;;7.20;99.90;;;;;;5108163;27;20082;-77
2022/11/18 04:04:50;;;;;;;32.72;20.65;;;7.20;99.90;;;;;;5087881;28;20135;-77
2022/11/18 04:07:31;;;;;;;31.50;19.73;;;7.10;99.90;;;;;;5098067;28;20044;-77
2022/11/18 04:10:13;;;;;;;32.28;19.88;;;7.10;99.90;;;;;;5107911;28;20051;-78
2022/11/18 04:13:07;;;;;;;32.45;19.90;;;7.10;99.90;;;;;;5107429;28;20096;-77
2022/11/18 04:15:37;;;;;;;28.98;19.58;;;7.20;99.90;;;;;;5108272;28;20070;-77
2022/11/18 04:18:03;;;;;;;35.63;19.45;;;7.10;99.90;;;;;;5108853;28;20040;-77
2022/11/18 04:20:30;;;;;;;33.70;19.25;;;7.20;99.90;;;;;;5108768;28;20040;-77
2022/11/18 04:22:56;;;;;;;32.10;19.90;;;7.10;99.90;;;;;;5106342;28;20035;-77
2022/11/18 04:25:23;;;;;;;32.88;19.45;;;7.10;99.90;;;;;;5109279;28;20039;-78
2022/11/18 04:27:49;;;;;;;34.33;20.20;;;7.10;99.90;;;;;;5108860;28;20142;-78
2022/11/18 04:30:15;;;;;;;32.60;19.45;;;7.10;99.90;;;;;;5107528;28;20051;-78
2022/11/18 04:32:41;;;;;;;29.58;19.65;;;7.10;99.90;;;;;;5108921;28;20043;-78
2022/11/18 04:35:06;;;;;;;31.85;19.48;;;7.10;99.90;;;;;;5108013;28;20504;-77
2022/11/18 04:37:32;;;;;;;32.90;19.48;;;7.10;99.90;;;;;;5109391;28;20053;-77
2022/11/18 04:39:58;;;;;;;33.80;19.90;;;7.10;99.90;;;;;;5106055;28;20075;-77
2022/11/18 04:42:23;;;;;;;31.40;19.70;;;7.10;99.90;;;;;;5107813;28;20066;-78
2022/11/18 04:44:49;;;;;;;28.40;18.33;;;7.10;99.90;;;;;;5108937;28;20052;-77
2022/11/18 04:47:15;;;;;;;29.80;19.33;;;7.10;99.90;;;;;;5109621;28;20493;-78
2022/11/18 04:49:40;;;;;;;30.38;19.50;;;7.10;99.90;;;;;;5108832;28;20104;-78
2022/11/18 04:52:06;;;;;;;29.90;18.55;;;7.10;99.90;;;;;;5108708;28;20035;-78
2022/11/18 04:54:32;;;;;;;30.30;18.92;;;7.00;99.90;;;;;;5107837;28;20101;-78
2022/11/18 04:56:57;;;;;;;30.27;18.00;;;7.00;99.90;;;;;;5109273;28;20086;-77
2022/11/18 04:59:26;;;;;;;31.75;18.60;;;7.00;99.90;;;;;;5109581;28;20036;-78
2022/11/18 05:01:52;;;;;;;28.02;17.85;;;7.00;99.90;;;;;;5108793;28;20142;-78
2022/11/18 05:04:20;;;;;;;33.92;18.10;;;7.00;99.90;;;;;;5109303;28;20051;-77
2022/11/18 05:06:46;;;;;;;28.05;17.08;;;7.00;99.90;;;;;;5109653;28;20077;-77
2022/11/18 05:09:12;;;;;;;31.70;18.50;;;7.00;99.90;;;;;;5108253;28;20163;-77
2022/11/18 05:14:26;;;;;;;29.20;17.80;;;7.00;99.90;;;;;;5093500;28;20088;-77
2022/11/18 05:16:52;;;;;;;28.80;17.35;;;7.00;99.90;;;;;;5108687;28;20089;-78
2022/11/18 05:19:18;;;;;;;32.08;18.48;;;7.00;99.90;;;;;;5108553;28;20043;-77
2022/11/18 05:21:44;;;;;;;31.88;19.00;;;7.00;99.90;;;;;;5108109;28;20459;-78
2022/11/18 05:24:09;;;;;;;30.98;17.90;;;7.00;99.90;;;;;;5105403;28;20056;-77
2022/11/18 05:26:35;;;;;;;29.13;17.70;;;7.00;99.90;;;;;;5108659;28;20468;-78
2022/11/18 05:29:00;;;;;;;30.20;18.33;;;7.00;99.90;;;;;;5105915;28;20094;-77
2022/11/18 05:31:26;;;;;;;30.15;18.88;;;7.00;99.90;;;;;;5105124;28;20402;-78
2022/11/18 05:33:52;;;;;;;28.40;17.27;;;7.00;99.90;;;;;;5105432;28;20044;-78
2022/11/18 05:36:19;;;;;;;30.13;18.23;;;6.90;99.90;;;;;;5106605;28;20074;-77
2022/11/18 05:38:45;;;;;;;29.75;18.27;;;6.90;99.90;;;;;;5106690;28;20059;-78
2022/11/18 05:43:09;;;;;;;30.27;17.52;;;7.00;99.90;;;;;;5104700;28;20036;-77
2022/11/18 05:44:00;;;;;;;33.33;19.05;;;7.00;99.90;;;;;;5105859;28;20493;-78
2022/11/18 05:46:26;;;;;;;30.00;18.35;;;6.90;99.90;;;;;;5106738;28;20047;-77
2022/11/18 05:48:52;;;;;;;31.45;18.00;;;6.90;99.90;;;;;;5105045;28;20142;-77
2022/11/18 05:51:17;;;;;;;33.10;18.38;;;6.90;99.90;;;;;;5106168;28;20138;-78
2022/11/18 05:53:43;;;;;;;31.10;17.88;;;6.90;99.90;;;;;;5106314;28;20044;-77
2022/11/18 05:56:15;;;;;;;32.38;17.88;;;6.90;99.90;;;;;;5105964;28;20880;-78
2022/11/18 05:58:41;;;;;;;28.13;17.65;;;6.90;99.90;;;;;;5089376;28;20035;-78
2022/11/18 06:01:08;;;;;;;28.45;17.63;;;6.90;99.90;;;;;;5095554;28;20051;-77
2022/11/18 06:03:38;;;;;;;29.27;16.77;;;6.90;99.90;;;;;;5075222;28;20072;-77
2022/11/18 06:06:05;;;;;;;27.30;17.70;;;6.90;99.90;;;;;;5099695;28;20082;-77
2022/11/18 06:08:36;;;;;;;30.15;17.75;;;6.90;99.90;;;;;;5105089;28;20131;-77
2022/11/18 06:11:02;;;;;;;28.60;17.42;;;6.90;99.90;;;;;;5105724;28;20104;-78
2022/11/18 06:13:37;;;;;;;29.30;17.60;;;6.90;99.90;;;;;;5105611;28;20043;-77
2022/11/18 06:16:03;;;;;;;29.67;18.38;;;6.90;99.90;;;;;;5106929;28;20051;-78
2022/11/18 06:18:31;;;;;;;28.63;18.02;;;6.90;99.90;;;;;;5105436;28;20054;-78
2022/11/18 06:21:02;;;;;;;30.58;17.10;;;6.80;99.90;;;;;;5105589;28;20052;-78
2022/11/18 06:23:31;;;;;;;29.83;17.05;;;6.90;99.90;;;;;;5107460;28;20043;-77
2022/11/18 06:25:56;;;;;;;31.50;17.40;;;6.90;99.90;;;;;;5106215;28;20497;-78
2022/11/18 06:28:23;;;;;;;28.90;17.98;;;6.80;99.90;;;;;;5106604;28;20101;-78
2022/11/18 06:30:48;;;;;;;29.70;16.83;;;6.80;99.90;;;;;;5104079;28;20047;-77
2022/11/18 06:33:14;;;;;;;29.92;17.20;;;6.90;99.90;;;;;;5106782;28;20184;-77
2022/11/18 06:35:41;;;;;;;29.15;17.92;;;6.80;99.90;;;;;;5094288;28;20071;-78
2022/11/18 06:38:07;;;;;;;30.00;17.73;;;6.80;99.90;;;;;;5104981;28;20049;-77
2022/11/18 06:40:36;;;;;;;29.85;17.40;;;6.80;99.90;;;;;;5106979;28;20130;-78
2022/11/18 06:48:46;;;;;;;31.13;15.63;;;6.80;99.90;;;;;;5110957;28;20142;-78
2022/11/18 06:51:12;;;;;;;26.02;15.60;;;6.80;99.90;;;;;;5112078;28;20051;-78
2022/11/18 06:53:37;;;;;;;30.23;15.68;;;6.80;99.90;;;;;;5110561;28;20097;-79
2022/11/18 06:56:04;;;;;;;24.63;15.27;;;6.70;99.90;;;;;;5109453;28;20100;-79
2022/11/18 06:58:30;;;;;;;26.27;15.25;;;6.70;99.90;;;;;;5111033;28;20182;-79
2022/11/18 07:00:56;;;;;;;25.83;15.23;;;6.80;99.90;;;;;;5110119;28;20052;-78
2022/11/18 07:03:21;;;;;;;24.02;14.32;;;6.70;99.90;;;;;;5111945;28;20047;-78
2022/11/18 07:05:47;;;;;;;23.33;13.30;;;6.70;99.90;;;;;;5110638;28;20061;-78
2022/11/18 07:08:12;;;;;;;25.33;13.65;;;6.70;99.90;;;;;;5108192;28;20083;-78
2022/11/18 07:10:38;;;;;;;23.15;13.75;;;6.70;99.90;;;;;;5109322;28;20090;-78
2022/11/18 07:13:04;;;;;;;22.70;13.70;;;6.90;99.90;;;;;;5085304;28;20062;-77
2022/11/18 07:15:29;;;;;;;21.30;13.35;;;6.70;99.90;;;;;;5110383;28;20702;-77
2022/11/18 07:17:55;;;;;;;25.83;14.07;;;6.70;99.90;;;;;;5105391;28;20119;-77
2022/11/18 07:20:20;;;;;;;26.63;14.35;;;6.70;99.90;;;;;;5108772;28;20516;-77
2022/11/18 07:22:46;;;;;;;31.45;14.35;;;6.70;99.90;;;;;;5109179;28;20043;-77
2022/11/18 07:25:11;;;;;;;28.73;14.90;;;6.60;99.90;;;;;;5110876;28;20048;-77
2022/11/18 07:27:37;;;;;;;29.08;15.77;;;6.60;99.90;;;;;;5109026;28;20050;-77
2022/11/18 07:30:03;;;;;;;27.20;14.23;;;6.60;99.90;;;;;;5109348;28;20387;-77
2022/11/18 07:32:28;;;;;;;25.67;14.75;;;6.60;99.90;;;;;;5109648;28;20159;-77
2022/11/18 07:34:54;;;;;;;22.42;12.80;;;6.60;99.90;;;;;;5110197;28;20063;-77
2022/11/18 07:37:19;;;;;;;27.52;13.82;;;6.60;99.90;;;;;;5110733;28;20101;-77
2022/11/18 07:39:45;;;;;;;24.50;14.00;;;6.60;99.90;;;;;;5109253;28;20040;-77
2022/11/18 07:42:13;;;;;;;24.35;14.48;;;6.60;99.90;;;;;;5108374;28;20053;-77
2022/11/18 07:44:39;;;;;;;23.92;13.63;;;6.60;99.90;;;;;;5110497;28;20547;-77
2022/11/18 07:47:05;;;;;;;23.10;12.55;;;6.60;99.90;;;;;;5108300;28;20080;-77
2022/11/18 07:49:32;;;;;;;22.63;13.05;;;6.60;99.90;;;;;;5091817;28;20051;-77
2022/11/18 07:51:58;;;;;;;19.98;12.02;;;6.60;99.90;;;;;;5106583;28;20054;-77
2022/11/18 07:54:23;;;;;;;23.17;12.23;;;6.60;99.90;;;;;;5109742;28;20048;-78
2022/11/18 07:56:49;;;;;;;23.10;12.52;;;6.60;99.90;;;;;;5107893;28;20051;-78
2022/11/18 07:59:14;;;;;;;23.23;12.35;;;6.60;99.90;;;;;;5107196;28;20423;-77
2022/11/18 08:01:40;;;;;;;25.75;12.93;;;6.60;99.90;;;;;;5108425;28;20043;-78
2022/11/18 08:04:11;;;;;;;26.70;13.55;;;6.60;99.90;;;;;;5108180;28;20095;-77
2022/11/18 08:06:37;;;;;;;24.77;13.00;;;6.60;99.90;;;;;;5091691;28;20047;-77
2022/11/18 08:09:04;;;;;;;27.33;14.13;;;6.60;99.90;;;;;;5106987;28;20040;-77
2022/11/18 08:11:30;;;;;;;26.08;13.00;;;6.60;99.90;;;;;;5105989;27;20101;-77
2022/11/18 08:13:55;;;;;;;30.40;13.35;;;6.60;99.90;;;;;;5106490;27;20439;-77
2022/11/18 08:16:23;;;;;;;21.92;12.48;;;6.60;99.90;;;;;;5107962;28;20445;-78
2022/11/18 08:18:49;;;;;;;25.30;13.20;;;6.60;99.90;;;;;;5106124;28;20044;-77
2022/11/18 08:21:17;;;;;;;22.73;14.00;;;6.70;99.90;;;;;;5108144;28;20201;-77
2022/11/18 08:23:47;;;;;;;25.02;13.07;;;6.60;99.90;;;;;;5107469;28;20051;-77
2022/11/18 08:26:13;;;;;;;26.15;13.30;;;6.60;99.90;;;;;;5108344;28;20048;-77
2022/11/18 08:28:43;;;;;;;22.00;12.50;;;6.60;99.90;;;;;;5109557;28;20044;-77
2022/11/18 08:31:14;;;;;;;22.23;12.50;;;6.60;99.90;;;;;;5107868;28;20051;-77
2022/11/18 08:33:40;;;;;;;26.15;12.10;;;6.60;99.90;;;;;;5104472;28;20090;-77
2022/11/18 08:36:14;;;;;;;21.77;12.38;;;6.60;99.90;;;;;;5106463;28;20409;-77
2022/11/18 08:38:40;;;;;;;20.35;12.32;;;6.60;99.90;;;;;;5109247;28;20075;-77
2022/11/18 08:41:06;;;;;;;20.55;11.32;;;6.60;99.90;;;;;;5090589;28;20086;-77
2022/11/18 08:43:34;;;;;;;23.20;11.95;;;6.60;99.90;;;;;;5109720;28;20043;-78
2022/11/18 08:45:59;;;;;;;19.77;11.63;;;6.60;99.90;;;;;;5109772;27;20058;-78
2022/11/18 08:48:25;;;;;;;18.83;10.82;;;6.60;99.90;;;;;;5091416;28;20134;-77
2022/11/18 08:50:51;;;;;;;21.73;12.40;;;6.70;99.90;;;;;;5109427;28;20083;-77
2022/11/18 08:53:17;;;;;;;22.55;12.10;;;6.60;99.90;;;;;;5109562;28;20473;-77
2022/11/18 08:55:42;;;;;;;22.20;11.18;;;6.60;99.90;;;;;;5108215;28;20039;-78
2022/11/18 08:58:08;;;;;;;21.30;12.50;;;6.70;99.90;;;;;;5108961;28;20039;-77
2022/11/18 09:00:33;;;;;;;18.63;12.32;;;6.70;99.90;;;;;;5108257;28;20047;-77
2022/11/18 09:02:59;;;;;;;19.70;11.60;;;6.70;99.90;;;;;;5090795;28;20052;-77
2022/11/18 09:05:24;;;;;;;20.58;12.65;;;6.60;99.90;;;;;;5107471;28;20047;-77
2022/11/18 09:07:50;;;;;;;18.67;11.77;;;6.60;99.90;;;;;;5107803;28;20043;-77
2022/11/18 09:10:17;;;;;;;18.73;12.40;;;6.60;99.90;;;;;;5109146;28;20505;-77
2022/11/18 09:12:42;;;;;;;19.00;11.70;;;6.60;99.90;;;;;;5108187;28;20146;-77
2022/11/18 09:15:08;;;;;;;20.60;12.00;;;6.60;99.90;;;;;;5107581;28;20444;-77
2022/11/18 09:17:34;;;;;;;20.13;11.35;;;6.60;99.90;;;;;;5108187;28;20112;-77
2022/11/18 09:19:59;;;;;;;19.00;11.80;;;6.60;99.90;;;;;;5109231;28;20048;-77
2022/11/18 09:22:25;;;;;;;19.02;12.07;;;6.60;99.90;;;;;;5107375;28;20697;-77
2022/11/18 09:24:51;;;;;;;20.33;11.27;;;6.60;99.90;;;;;;5107883;28;20055;-77
2022/11/18 09:27:16;;;;;;;25.92;11.65;;;6.50;99.90;;;;;;5106488;28;20048;-77
2022/11/18 09:29:42;;;;;;;22.23;11.85;;;6.60;99.90;;;;;;5090587;28;20054;-77
2022/11/18 09:32:07;;;;;;;20.17;11.93;;;6.50;99.90;;;;;;5107116;28;20104;-77
2022/11/18 09:34:34;;;;;;;21.83;11.80;;;6.60;99.90;;;;;;5107175;28;20051;-77
2022/11/18 09:36:59;;;;;;;16.27;10.65;;;6.60;99.90;;;;;;5107283;28;20056;-77
2022/11/18 09:39:25;;;;;;;21.33;11.63;;;6.60;99.90;;;;;;5108715;28;20097;-77
2022/11/18 09:42:23;;;;;;;20.33;10.85;;;6.60;99.90;;;;;;5106442;28;20505;-77
2022/11/18 09:45:02;;;;;;;19.33;12.02;;;6.60;99.90;;;;;;5108279;28;20052;-77
2022/11/18 09:47:33;;;;;;;21.90;12.90;;;6.60;99.90;;;;;;5089384;28;20516;-77
2022/11/18 09:50:02;;;;;;;18.83;12.02;;;6.60;99.90;;;;;;5107737;28;20053;-77
2022/11/18 09:52:51;;;;;;;19.17;11.23;;;6.60;99.90;;;;;;5106791;28;20043;-77
2022/11/18 09:55:17;;;;;;;18.27;11.27;;;6.60;99.90;;;;;;5104342;28;20092;-76
2022/11/18 09:57:46;;;;;;;18.15;12.23;;;6.60;99.90;;;;;;5104971;28;20097;-76
2022/11/18 10:00:24;;;;;;;19.23;12.45;;;6.60;99.90;;;;;;5106400;28;20138;-77
2022/11/18 10:02:58;;;;;;;18.85;11.90;;;6.60;99.90;;;;;;5106766;28;20086;-77
2022/11/18 10:05:29;;;;;;;16.00;11.55;;;6.60;99.90;;;;;;5106583;27;20126;-77
2022/11/18 10:08:22;;;;;;;18.77;11.95;;;6.50;99.90;;;;;;5108859;27;20428;-77
2022/11/18 10:11:23;;;;;;;16.25;10.95;;;6.50;99.90;;;;;;5101565;27;20048;-76
2022/11/18 10:14:16;;;;;;;19.55;11.75;;;6.50;99.90;;;;;;5093086;28;20120;-76
2022/11/18 10:16:54;;;;;;;19.05;12.68;;;6.50;99.90;;;;;;5107260;28;20082;-77
2022/11/18 10:19:33;;;;;;;19.45;11.30;;;;;;;;;;5106566;28;20545;-77
2022/11/18 10:22:08;;;;;;;18.98;12.07;;;;;;;;;;5104509;28;20047;-76
2022/11/18 10:24:41;;;;;;;16.83;10.98;;;6.40;99.90;;;;;;5107651;28;20092;-76
2022/11/18 10:27:15;;;;;;;19.10;11.20;;;6.40;99.90;;;;;;5107428;28;20093;-77
2022/11/18 10:29:42;;;;;;;20.83;12.18;;;6.40;99.90;;;;;;5107535;28;20389;-74
2022/11/18 10:32:12;;;;;;;21.10;11.68;;;6.40;99.90;;;;;;5106513;28;20530;-75
2022/11/18 10:34:56;;;;;;;19.63;11.52;;;6.40;99.90;;;;;;5108118;28;20044;-74
2022/11/18 10:37:26;;;;;;;17.48;11.13;;;6.40;99.90;;;;;;5105479;28;20120;-74
2022/11/18 10:39:56;;;;;;;17.92;11.63;;;6.30;99.90;;;;;;5107825;28;20071;-76
2022/11/18 10:42:40;;;;;;;19.67;11.52;;;6.40;99.90;;;;;;5104333;28;20150;-75
2022/11/18 10:45:21;;;;;;;20.85;11.57;;;6.40;99.90;;;;;;5106147;28;20083;-75
2022/11/18 10:48:15;;;;;;;17.35;10.75;;;6.40;99.90;;;;;;5098147;28;20047;-75
2022/11/18 10:50:46;;;;;;;18.92;10.95;;;6.50;99.90;;;;;;5091097;28;20051;-75
2022/11/18 10:53:30;;;;;;;17.63;10.50;;;6.50;99.90;;;;;;5107922;28;20044;-75
2022/11/18 10:55:59;;;;;;;17.88;10.82;;;6.50;99.90;;;;;;5102952;28;20514;-75
2022/11/18 10:58:27;;;;;;;19.88;11.45;;;6.50;99.90;;;;;;5106028;28;20134;-75
2022/11/18 11:01:04;;;;;;;19.33;10.75;;;6.50;99.90;;;;;;5106073;28;20057;-75
2022/11/18 11:03:36;;;;;;;14.88;9.65;;;6.50;99.90;;;;;;5104987;28;20482;-76
2022/11/18 11:06:14;;;;;;;17.45;9.80;;;6.50;99.90;;;;;;5102364;28;20560;-77
2022/11/18 11:08:53;;;;;;;16.00;9.95;;;6.50;99.90;;;;;;5105924;28;20040;-76
2022/11/18 11:11:29;;;;;;;14.90;9.52;;;6.50;99.90;;;;;;5087548;28;20044;-77
2022/11/18 11:14:03;;;;;;;15.10;10.15;;;6.50;99.90;;;;;;5104905;28;20040;-77
2022/11/18 11:16:31;;;;;;;14.30;9.80;;;6.50;99.90;;;;;;5108057;28;20116;-77
2022/11/18 11:19:01;;;;;;;14.73;9.15;;;6.50;99.90;;;;;;5107905;28;20347;-77
2022/11/18 11:21:27;;;;;;;15.77;9.82;;;6.50;99.90;;;;;;5105019;28;20097;-76
2022/11/18 11:23:53;;;;;;;14.15;9.02;;;6.50;99.90;;;;;;5106376;28;20466;-78
2022/11/18 11:26:54;;;;;;;16.52;9.65;;;6.50;99.90;;;;;;5104455;28;20055;-77
2022/11/18 11:29:37;;;;;;;14.48;9.75;;;6.50;99.90;;;;;;5109231;27;20532;-77
2022/11/18 11:32:27;;;;;;;16.42;10.27;;;6.50;99.90;;;;;;5111450;27;20042;-77
2022/11/18 11:35:19;;;;;;;15.02;9.43;;;6.40;99.90;;;;;;5090419;28;20039;-77
2022/11/18 11:38:11;;;;;;;13.68;9.48;;;6.40;99.90;;;;;;5106220;27;20044;-78
2022/11/18 11:41:02;;;;;;;18.38;10.50;;;6.30;99.90;;;;;;5109968;28;20104;-78
2022/11/18 11:43:41;;;;;;;15.45;10.32;;;6.30;99.90;;;;;;5106976;28;20720;-77
2022/11/18 11:46:44;;;;;;;13.85;10.25;;;6.30;99.90;;;;;;5106062;28;20461;-78
2022/11/18 11:49:33;;;;;;;16.45;10.45;;;6.20;99.90;;;;;;5097669;28;20393;-77
2022/11/18 11:52:10;;;;;;;15.18;9.70;;;6.20;99.90;;;;;;5110799;28;20043;-77
2022/11/18 11:54:54;;;;;;;13.25;9.07;;;6.10;99.90;;;;;;5110014;28;20044;-78
2022/11/18 11:57:32;;;;;;;13.13;8.30;;;6.10;99.90;;;;;;5107937;27;20047;-77
2022/11/18 12:00:12;;;;;;;11.40;8.10;;;6.90;99.90;;;;;;5090105;28;20052;-78
2022/11/18 12:02:56;;;;;;;10.75;7.10;;;6.10;99.90;;;;;;5103487;28;20048;-78
2022/11/18 12:05:34;;;;;;;11.52;8.40;;;6.00;99.90;;;;;;5089886;28;20058;-78
2022/11/18 12:08:03;;;;;;;10.88;7.72;;;6.00;99.90;;;;;;5088489;28;20056;-78
2022/11/18 12:10:46;;;;;;;10.98;8.20;;;5.90;99.90;;;;;;5088876;28;20044;-77
2022/11/18 12:13:31;;;;;;;13.52;8.82;;;6.00;99.90;;;;;;5097261;28;20047;-77
2022/11/18 12:16:02;;;;;;;12.40;9.00;;;6.00;99.90;;;;;;5088190;28;20131;-78
2022/11/18 12:18:39;;;;;;;13.68;8.88;;;;;;;;;;5089702;28;20113;-78
2022/11/18 12:21:05;;;;;;;14.40;8.45;;;6.10;99.90;;;;;;5108928;28;20078;-78
2022/11/18 12:23:32;;;;;;;13.43;8.02;;;6.10;99.90;;;;;;5110321;28;20040;-78
2022/11/18 12:25:58;;;;;;;12.43;7.78;;;6.10;99.90;;;;;;5109654;28;20435;-77
2022/11/18 12:28:33;;;;;;;11.00;7.25;;;6.20;99.90;;;;;;5110451;28;20043;-77
2022/11/18 12:31:30;;;;;;;15.98;8.73;;;5.90;99.90;;;;;;5108552;28;20108;-78
2022/11/18 12:34:05;;;;;;;11.13;7.50;;;6.10;99.90;;;;;;5107086;28;20118;-77
2022/11/18 12:36:39;;;;;;;11.40;7.57;;;6.20;99.90;;;;;;5103942;28;20458;-77
2022/11/18 12:39:22;;;;;;;12.50;8.55;;;5.90;99.90;;;;;;5109542;28;20128;-78
2022/11/18 12:44:49;;;;;;;13.73;8.32;;;5.80;99.90;;;;;;5109878;28;20498;-77
2022/11/18 12:47:35;;;;;;;17.63;10.95;;;6.20;99.90;;;;;;5109573;28;20454;-77
2022/11/18 12:50:01;;;;;;;14.27;8.75;;;6.10;99.90;;;;;;5105959;28;20043;-77
2022/11/18 12:52:29;;;;;;;15.00;9.85;;;5.80;99.90;;;;;;5103920;28;20039;-77
2022/11/18 12:55:03;;;;;;;13.95;9.25;;;6.90;99.90;;;;;;5106779;28;20052;-77
2022/11/18 12:57:32;;;;;;;16.45;10.52;;;6.10;99.90;;;;;;5107927;28;20043;-77
2022/11/18 13:00:14;;;;;;;16.58;9.15;;;6.10;99.90;;;;;;5107889;28;20409;-77
2022/11/18 13:02:50;;;;;;;16.20;10.10;;;6.10;99.90;;;;;;5108192;28;20400;-77
2022/11/18 13:05:22;;;;;;;14.27;9.15;;;6.10;99.90;;;;;;5109208;28;20088;-77
2022/11/18 13:08:14;;;;;;;16.55;9.65;;;6.00;99.90;;;;;;5107583;28;20150;-77
2022/11/18 13:10:43;;;;;;;15.48;9.43;;;6.10;99.90;;;;;;5107870;28;20110;-77
2022/11/18 13:13:30;;;;;;;14.75;8.95;;;6.00;99.90;;;;;;5107454;28;20450;-77
2022/11/18 13:18:49;;;;;;;14.68;9.52;;;5.90;99.90;;;;;;5109034;28;20048;-77